createdAt,value
2023-01-05T00:01:14.158Z,100280.78
2023-01-05T00:03:41.470Z,100279.63
2023-01-05T00:06:11.807Z,100280.66
2023-01-05T00:08:39.937Z,100283.66
2023-01-05T00:11:11.739Z,100286.97
2023-01-05T00:13:38.988Z,100280.44
2023-01-05T00:16:11.235Z,100289.28
2023-01-05T00:18:38.360Z,100293.81
2023-01-05T00:21:13.312Z,100297.44
2023-01-05T00:23:40.840Z,100300.53
2023-01-05T00:26:09.027Z,100295.25
2023-01-05T00:28:35.874Z,100292.50
2023-01-05T00:31:03.483Z,100305.94
2023-01-05T00:33:30.253Z,100302.16
2023-01-05T00:35:57.844Z,100306.00
2023-01-05T00:38:25.070Z,100305.91
2023-01-05T00:40:52.394Z,100308.50
2023-01-05T00:43:21.253Z,100303.16
2023-01-05T00:45:48.467Z,100310.28
2023-01-05T00:48:15.638Z,100313.75
2023-01-05T00:50:42.449Z,100327.28
2023-01-05T00:53:09.823Z,100324.72
2023-01-05T00:55:37.181Z,100322.63
2023-01-05T00:58:04.733Z,100320.38
2023-01-05T01:00:33.331Z,100329.56
2023-01-05T01:03:00.761Z,100315.25
2023-01-05T01:05:28.392Z,100319.41
2023-01-05T01:07:55.206Z,100332.81
2023-01-05T01:10:21.955Z,100331.78
2023-01-05T01:12:49.568Z,100337.88
2023-01-05T01:15:17.007Z,100345.91
2023-01-05T01:17:45.759Z,100356.28
2023-01-05T01:20:13.572Z,100362.41
2023-01-05T01:22:40.748Z,100370.25
2023-01-05T01:25:08.722Z,100365.81
2023-01-05T01:27:36.121Z,100372.78
2023-01-05T01:30:03.652Z,100370.03
2023-01-05T01:32:31.029Z,100385.59
2023-01-05T01:35:00.304Z,100379.25
2023-01-05T01:37:27.613Z,100382.41
2023-01-05T01:39:54.391Z,100372.09
2023-01-05T01:42:22.918Z,100364.34
2023-01-05T01:44:56.009Z,100360.72
2023-01-05T01:47:30.865Z,100361.13
2023-01-05T01:50:03.116Z,100367.47
2023-01-05T01:52:32.770Z,100353.97
2023-01-05T01:55:02.415Z,100364.72
2023-01-05T01:57:29.974Z,100365.34
2023-01-05T02:00:01.061Z,100376.31
2023-01-05T02:02:29.663Z,100371.88
2023-01-05T02:05:01.589Z,100374.19
2023-01-05T02:07:33.395Z,100375.91
2023-01-05T02:10:03.211Z,100380.56
2023-01-05T02:12:43.730Z,100381.16
2023-01-05T02:15:24.751Z,100392.78
2023-01-05T02:18:07.938Z,100398.09
2023-01-05T02:21:05.061Z,100398.84
2023-01-05T02:24:08.143Z,100404.97
2023-01-05T02:27:08.143Z,100410.84
2023-01-05T02:29:54.623Z,100406.13
2023-01-05T02:32:31.107Z,100412.03
2023-01-05T02:35:07.864Z,100420.06
2023-01-05T02:37:42.211Z,100410.34
2023-01-05T02:40:14.095Z,100423.00
2023-01-05T02:42:43.707Z,100425.56
2023-01-05T02:45:11.218Z,100424.44
2023-01-05T02:47:44.635Z,100426.41
2023-01-05T02:50:18.586Z,100423.19
2023-01-05T02:52:50.888Z,100430.38
2023-01-05T02:55:25.192Z,100439.25
2023-01-05T02:57:59.459Z,100438.06
2023-01-05T03:00:33.592Z,100436.88
2023-01-05T03:03:07.649Z,100437.38
2023-01-05T03:05:40.382Z,100443.50
2023-01-05T03:08:09.638Z,100449.00
2023-01-05T03:10:43.721Z,100446.50
2023-01-05T03:13:11.904Z,100446.28
2023-01-05T03:15:42.065Z,100443.75
2023-01-05T03:18:15.020Z,100444.81
2023-01-05T03:20:46.702Z,100449.84
2023-01-05T03:23:17.331Z,100447.88
2023-01-05T03:25:46.356Z,100454.59
2023-01-05T03:28:18.980Z,100443.47
2023-01-05T03:30:56.752Z,100438.34
2023-01-05T03:33:35.400Z,100435.63
2023-01-05T03:36:06.465Z,100441.63
2023-01-05T03:38:38.593Z,100446.06
2023-01-05T03:41:08.481Z,100447.19
2023-01-05T03:43:37.077Z,100447.25
2023-01-05T03:46:11.693Z,100445.28
2023-01-05T03:48:40.631Z,100446.88
2023-01-05T03:51:08.704Z,100453.00
2023-01-05T03:53:36.299Z,100446.25
2023-01-05T03:56:04.108Z,100448.94
2023-01-05T03:58:31.415Z,100455.47
2023-01-05T04:00:58.855Z,100444.97
2023-01-05T04:03:31.334Z,100459.03
2023-01-05T04:06:00.658Z,100466.13
2023-01-05T04:08:27.961Z,100458.72
2023-01-05T04:10:55.278Z,100459.03
2023-01-05T04:13:22.159Z,100453.75
2023-01-05T04:15:49.325Z,100453.75
2023-01-05T04:18:16.458Z,100438.22
2023-01-05T04:20:43.327Z,100441.84
2023-01-05T04:23:11.955Z,100439.75
2023-01-05T04:25:39.306Z,100434.34
2023-01-05T04:28:06.668Z,100435.69
2023-01-05T04:30:34.014Z,100430.38
2023-01-05T04:33:00.701Z,100431.91
2023-01-05T04:35:27.990Z,100427.91
2023-01-05T04:37:55.191Z,100424.78
2023-01-05T04:40:23.455Z,100417.38
2023-01-05T04:42:50.868Z,100418.47
2023-01-05T04:45:18.169Z,100413.66
2023-01-05T04:47:45.823Z,100414.53
2023-01-05T04:50:13.327Z,100410.50
2023-01-05T04:52:40.602Z,100409.63
2023-01-05T04:55:08.322Z,100417.03
2023-01-05T04:57:37.279Z,100411.09
2023-01-05T05:00:05.832Z,100421.41
2023-01-05T05:02:33.891Z,100421.84
2023-01-05T05:05:01.440Z,100426.00
2023-01-05T05:07:28.804Z,100424.38
2023-01-05T05:09:56.384Z,100416.19
2023-01-05T05:12:23.919Z,100422.91
2023-01-05T05:14:52.485Z,100422.28
2023-01-05T05:17:19.918Z,100425.66
2023-01-05T05:19:47.690Z,100417.69
2023-01-05T05:22:15.050Z,100425.03
2023-01-05T05:24:42.552Z,100416.78
2023-01-05T05:27:09.952Z,100414.28
2023-01-05T05:29:37.227Z,100416.75
2023-01-05T05:32:06.115Z,100416.53
2023-01-05T05:34:33.709Z,100413.38
2023-01-05T05:37:01.181Z,100416.72
2023-01-05T05:39:28.612Z,100407.47
2023-01-05T05:41:56.023Z,100413.81
2023-01-05T05:44:23.409Z,100421.81
2023-01-05T05:46:50.811Z,100414.66
2023-01-05T05:49:19.865Z,100409.41
2023-01-05T05:51:47.004Z,100415.53
2023-01-05T05:54:14.410Z,100400.41
2023-01-05T05:56:42.495Z,100405.66
2023-01-05T05:59:09.765Z,100394.91
2023-01-05T06:01:37.034Z,100394.44
2023-01-05T06:04:05.189Z,100395.75
2023-01-05T06:06:33.854Z,100391.69
2023-01-05T06:09:01.060Z,100393.22
2023-01-05T06:11:28.520Z,100384.97
2023-01-05T06:13:55.738Z,100380.56
2023-01-05T06:16:23.135Z,100374.50
2023-01-05T06:18:50.071Z,100377.00
2023-01-05T06:21:17.401Z,100380.34
2023-01-05T06:23:46.101Z,100387.97
2023-01-05T06:26:13.711Z,100382.88
2023-01-05T06:28:40.956Z,100378.06
2023-01-05T06:31:08.532Z,100376.56
2023-01-05T06:33:36.267Z,100379.53
2023-01-05T06:36:03.615Z,100378.28
2023-01-05T06:38:30.902Z,100374.91
2023-01-05T06:41:00.158Z,100373.03
2023-01-05T06:43:27.490Z,100376.59
2023-01-05T06:45:54.898Z,100375.34
2023-01-05T06:48:22.348Z,100374.88
2023-01-05T06:50:49.549Z,100379.31
2023-01-05T06:53:16.728Z,100374.56
2023-01-05T06:55:45.494Z,100373.56
2023-01-05T06:58:14.224Z,100365.72
2023-01-05T07:00:41.165Z,100377.94
2023-01-05T07:03:10.035Z,100369.91
2023-01-05T07:05:37.810Z,100377.44
2023-01-05T07:08:05.716Z,100374.81
2023-01-05T07:10:33.500Z,100371.88
2023-01-05T07:13:01.041Z,100368.41
2023-01-05T07:15:30.456Z,100363.84
2023-01-05T07:17:57.885Z,100363.44
2023-01-05T07:20:24.673Z,100363.56
2023-01-05T07:22:51.900Z,100364.59
2023-01-05T07:25:19.213Z,100361.84
2023-01-05T07:27:51.111Z,100365.50
2023-01-05T07:30:18.012Z,100366.59
2023-01-05T07:32:46.938Z,100363.09
2023-01-05T07:35:15.305Z,100366.28
2023-01-05T07:37:42.647Z,100373.25
2023-01-05T07:40:11.757Z,100359.97
2023-01-05T07:42:39.299Z,100365.44
2023-01-05T07:45:08.432Z,100363.72
2023-01-05T07:47:35.855Z,100365.59
2023-01-05T07:50:04.467Z,100362.72
2023-01-05T07:52:31.674Z,100363.84
2023-01-05T07:54:58.880Z,100360.88
2023-01-05T07:57:26.102Z,100352.16
2023-01-05T07:59:53.406Z,100357.66
2023-01-05T08:02:21.100Z,100349.78
2023-01-05T08:04:48.012Z,100357.19
2023-01-05T08:07:16.812Z,100349.09
2023-01-05T08:09:44.618Z,100343.66
2023-01-05T08:12:12.008Z,100352.06
2023-01-05T08:14:39.200Z,100348.13
2023-01-05T08:17:06.611Z,100342.31
2023-01-05T08:19:33.764Z,100347.19
2023-01-05T08:22:01.033Z,100339.78
2023-01-05T08:24:30.020Z,100335.13
2023-01-05T08:26:57.297Z,100339.06
2023-01-05T08:29:24.626Z,100326.47
2023-01-05T08:31:52.171Z,100331.91
2023-01-05T08:34:19.482Z,100317.13
2023-01-05T08:36:46.871Z,100318.81
2023-01-05T08:39:14.506Z,100321.25
2023-01-05T08:41:43.471Z,100322.03
2023-01-05T08:44:12.926Z,100320.88
2023-01-05T08:46:40.512Z,100322.31
2023-01-05T08:49:08.751Z,100321.41
2023-01-05T08:51:36.071Z,100315.78
2023-01-05T08:54:03.546Z,100319.28
2023-01-05T08:56:38.014Z,100323.28
2023-01-05T08:59:07.795Z,100318.28
2023-01-05T09:01:35.155Z,100316.03
2023-01-05T09:04:02.475Z,100311.91
2023-01-05T09:06:30.167Z,100319.97
2023-01-05T09:08:57.358Z,100322.44
2023-01-05T09:11:25.970Z,100314.69
2023-01-05T09:13:55.121Z,100318.88
2023-01-05T09:16:56.712Z,100317.91
2023-01-05T09:19:13.274Z,100307.75
2023-01-05T09:21:40.913Z,100300.25
2023-01-05T09:24:12.003Z,100311.59
2023-01-05T09:26:39.890Z,100304.50
2023-01-05T09:29:07.102Z,100305.34
2023-01-05T09:31:35.297Z,100307.34
2023-01-05T09:34:02.309Z,100302.19
2023-01-05T09:36:29.687Z,100304.94
2023-01-05T09:38:56.896Z,100301.59
2023-01-05T09:41:27.728Z,100298.09
2023-01-05T09:43:58.619Z,100313.69
2023-01-05T09:46:30.814Z,100308.81
2023-01-05T09:49:03.328Z,100308.31
2023-01-05T09:51:30.932Z,100313.03
2023-01-05T09:53:59.630Z,100308.16
2023-01-05T09:57:07.506Z,100304.69
2023-01-05T09:59:24.464Z,100297.22
2023-01-05T10:01:54.368Z,100301.41
2023-01-05T10:04:30.308Z,100305.06
2023-01-05T10:07:02.597Z,100316.59
2023-01-05T10:09:32.208Z,100317.53
2023-01-05T10:12:05.330Z,100323.63
2023-01-05T10:14:38.539Z,100328.63
2023-01-05T10:17:39.848Z,100334.66
2023-01-05T10:20:02.004Z,100334.41
2023-01-05T10:22:39.792Z,100331.81
2023-01-05T10:25:19.741Z,100330.44
2023-01-05T10:27:56.883Z,100331.13
2023-01-05T10:30:26.928Z,100324.72
2023-01-05T10:33:25.546Z,100320.91
2023-01-05T10:36:07.466Z,100326.47
2023-01-05T10:38:48.229Z,100322.28
2023-01-05T10:41:23.591Z,100323.84
2023-01-05T10:44:13.285Z,100324.53
2023-01-05T10:46:52.403Z,100321.31
2023-01-05T10:49:24.726Z,100327.78
2023-01-05T10:51:56.813Z,100325.75
2023-01-05T10:54:36.213Z,100326.47
2023-01-05T10:57:36.829Z,100331.50
2023-01-05T11:00:10.771Z,100329.47
2023-01-05T11:02:41.480Z,100330.66
2023-01-05T11:05:30.938Z,100324.56
2023-01-05T11:08:02.323Z,100329.00
2023-01-05T11:10:33.295Z,100331.22
2023-01-05T11:13:06.861Z,100319.72
2023-01-05T11:15:41.233Z,100317.47
2023-01-05T11:18:24.645Z,100314.78
2023-01-05T11:21:10.152Z,100311.94
2023-01-05T11:23:41.327Z,100308.91
2023-01-05T11:26:30.579Z,100306.00
2023-01-05T11:29:00.496Z,100312.13
2023-01-05T11:31:32.421Z,100303.47
2023-01-05T11:34:03.856Z,100304.06
2023-01-05T11:36:31.209Z,100302.19
2023-01-05T11:38:59.538Z,100293.75
2023-01-05T11:41:27.647Z,100284.59
2023-01-05T11:43:55.082Z,100278.81
2023-01-05T11:46:23.633Z,100269.72
2023-01-05T11:48:55.159Z,100264.34
2023-01-05T11:51:33.823Z,100255.28
2023-01-05T11:54:03.248Z,100258.63
2023-01-05T11:56:30.603Z,100240.88
2023-01-05T11:58:58.099Z,100251.06
2023-01-05T12:01:49.210Z,100255.16
2023-01-05T12:04:30.075Z,100247.13
2023-01-05T12:07:09.444Z,100234.50
2023-01-05T12:09:39.245Z,100231.84
2023-01-05T12:12:27.331Z,100234.19
2023-01-05T12:15:16.647Z,100228.59
2023-01-05T12:17:55.162Z,100232.06
2023-01-05T12:20:46.897Z,100225.59
2023-01-05T12:23:34.979Z,100226.97
2023-01-05T12:26:18.654Z,100234.28
2023-01-05T12:35:40.359Z,100209.34
2023-01-05T12:38:37.197Z,100201.38
2023-01-05T12:41:39.578Z,100199.84
2023-01-05T12:44:38.365Z,100205.34
2023-01-05T12:47:21.038Z,100196.22
2023-01-05T12:49:56.119Z,100203.34
2023-01-05T12:52:28.589Z,100194.19
2023-01-05T12:55:02.606Z,100191.59
2023-01-05T12:57:34.663Z,100191.81
2023-01-05T13:00:06.452Z,100191.75
2023-01-05T13:02:36.927Z,100194.06
2023-01-05T13:05:09.333Z,100189.56
2023-01-05T13:07:43.082Z,100192.91
2023-01-05T13:10:21.070Z,100190.94
2023-01-05T13:12:55.743Z,100172.84
2023-01-05T13:15:28.435Z,100181.03
2023-01-05T13:18:06.527Z,100175.00
2023-01-05T13:20:40.158Z,100171.66
2023-01-05T13:23:15.077Z,100184.19
2023-01-05T13:25:50.456Z,100166.34
2023-01-05T13:28:26.019Z,100163.00
2023-01-05T13:31:24.545Z,100152.53
2023-01-05T13:34:11.704Z,100152.00
2023-01-05T13:36:58.584Z,100154.72
2023-01-05T13:39:50.391Z,100145.25
2023-01-05T13:42:38.373Z,100149.44
2023-01-05T13:45:36.566Z,100144.53
2023-01-05T13:48:38.646Z,100144.88
2023-01-05T13:51:36.935Z,100134.56
2023-01-05T13:54:13.135Z,100133.19
2023-01-05T13:56:41.293Z,100127.06
2023-01-05T13:59:29.148Z,100123.59
2023-01-05T14:02:22.714Z,100123.31
2023-01-05T14:04:50.583Z,100115.03
2023-01-05T14:07:18.636Z,100112.63
2023-01-05T14:09:48.616Z,100102.41
2023-01-05T14:12:45.051Z,100104.94
2023-01-05T14:15:41.186Z,100094.28
2023-01-05T14:18:10.542Z,100088.09
2023-01-05T14:20:41.780Z,100084.25
2023-01-05T14:23:45.879Z,100076.13
2023-01-05T14:26:13.649Z,100067.16
2023-01-05T14:28:46.732Z,100056.28
2023-01-05T14:31:48.331Z,100054.66
2023-01-05T14:34:19.977Z,100049.56
2023-01-05T14:37:02.377Z,100036.59
2023-01-05T14:39:36.062Z,100023.19
2023-01-05T14:42:07.155Z,100017.91
2023-01-05T14:44:41.945Z,100018.81
2023-01-05T14:47:11.267Z,100011.97
2023-01-05T14:49:42.640Z,100006.50
2023-01-05T14:52:18.107Z,100000.78
2023-01-05T14:55:37.153Z,100001.00
2023-01-05T14:58:11.533Z,100000.16
2023-01-05T15:00:50.598Z,99993.63
2023-01-05T15:03:28.942Z,99987.47
2023-01-05T15:06:05.682Z,99981.66
2023-01-05T15:09:01.082Z,99971.06
2023-01-05T15:11:43.703Z,99968.91
2023-01-05T15:14:39.580Z,99964.13
2023-01-05T15:17:57.019Z,99976.75
2023-01-05T15:20:55.463Z,99972.16
2023-01-05T15:23:50.916Z,99970.09
2023-01-05T15:26:39.423Z,99956.09
2023-01-05T15:29:34.647Z,99964.91
2023-01-05T15:32:11.318Z,99947.31
2023-01-05T15:34:44.977Z,99948.34
2023-01-05T15:37:16.013Z,99939.09
2023-01-05T15:39:49.434Z,99936.47
2023-01-05T15:42:22.088Z,99928.44
2023-01-05T15:44:52.264Z,99933.44
2023-01-05T15:47:23.192Z,99926.03
2023-01-05T15:49:55.468Z,99934.28
2023-01-05T15:52:34.459Z,99919.69
2023-01-05T15:55:12.666Z,99918.63
2023-01-05T15:57:40.513Z,99914.56
2023-01-05T16:00:16.892Z,99921.03
2023-01-05T16:02:44.346Z,99914.16
2023-01-05T16:05:14.785Z,99898.88
2023-01-05T16:07:44.757Z,99908.22
2023-01-05T16:10:24.152Z,99902.78
2023-01-05T16:12:55.951Z,99905.03
2023-01-05T16:15:24.853Z,99897.44
2023-01-05T16:17:55.892Z,99900.78
2023-01-05T16:20:25.030Z,99897.69
2023-01-05T16:23:04.689Z,99895.84
2023-01-05T16:25:40.595Z,99892.25
2023-01-05T16:28:16.509Z,99881.94
2023-01-05T16:30:44.664Z,99882.78
2023-01-05T16:33:28.328Z,99876.47
2023-01-05T16:36:11.785Z,99874.91
2023-01-05T16:38:40.110Z,99877.50
2023-01-05T16:41:24.346Z,99877.41
2023-01-05T16:43:56.945Z,99872.78
2023-01-05T16:46:30.958Z,99876.34
2023-01-05T16:49:01.501Z,99875.63
2023-01-05T16:51:41.967Z,99866.53
2023-01-05T16:54:21.893Z,99851.69
2023-01-05T16:57:01.795Z,99846.47
2023-01-05T16:59:50.077Z,99851.63
2023-01-05T17:02:43.346Z,99849.66
2023-01-05T17:05:11.737Z,99846.56
2023-01-05T17:07:40.857Z,99842.44
2023-01-05T17:10:15.944Z,99848.44
2023-01-05T17:12:45.385Z,99845.84
2023-01-05T17:15:19.139Z,99845.56
2023-01-05T17:17:46.637Z,99840.53
2023-01-05T17:20:14.062Z,99832.13
2023-01-05T17:22:41.724Z,99844.41
2023-01-05T17:25:12.867Z,99835.25
2023-01-05T17:27:40.307Z,99830.88
2023-01-05T17:30:17.470Z,99820.25
2023-01-05T17:32:44.231Z,99822.03
2023-01-05T17:35:11.284Z,99818.88
2023-01-05T17:37:39.115Z,99810.34
2023-01-05T17:40:11.064Z,99814.75
2023-01-05T17:42:44.568Z,99795.28
2023-01-05T17:45:20.918Z,99794.22
2023-01-05T17:47:53.529Z,99778.13
2023-01-05T17:50:22.246Z,99774.69
2023-01-05T17:52:49.690Z,99771.25
2023-01-05T17:55:17.780Z,99767.28
2023-01-05T17:57:45.950Z,99769.28
2023-01-05T18:00:20.724Z,99753.13
2023-01-05T18:02:49.942Z,99745.38
2023-01-05T18:05:17.996Z,99738.75
2023-01-05T18:07:45.472Z,99730.41
2023-01-05T18:10:22.798Z,99721.13
2023-01-05T18:12:50.624Z,99712.94
2023-01-05T18:15:19.551Z,99717.88
2023-01-05T18:17:46.993Z,99716.44
2023-01-05T18:20:15.643Z,99700.19
2023-01-05T18:22:43.635Z,99699.09
2023-01-05T18:25:10.844Z,99703.75
2023-01-05T18:27:37.686Z,99698.72
2023-01-05T18:30:06.344Z,99700.75
2023-01-05T18:32:35.488Z,99716.91
2023-01-05T18:35:05.829Z,99715.78
2023-01-05T18:37:36.114Z,99722.28
2023-01-05T18:40:04.226Z,99725.16
2023-01-05T18:42:31.449Z,99719.47
2023-01-05T18:44:59.894Z,99706.25
2023-01-05T18:47:32.784Z,99697.81
2023-01-05T18:50:01.314Z,99690.97
2023-01-05T18:52:28.480Z,99683.66
2023-01-05T18:54:55.295Z,99705.53
2023-01-05T18:57:22.673Z,99685.38
2023-01-05T18:59:51.833Z,99693.88
2023-01-05T19:02:19.759Z,99695.28
2023-01-05T19:04:47.583Z,99690.63
2023-01-05T19:07:16.218Z,99675.13
2023-01-05T19:09:44.017Z,99696.63
2023-01-05T19:12:11.153Z,99690.88
2023-01-05T19:14:38.366Z,99693.88
2023-01-05T19:17:05.649Z,99674.38
2023-01-05T19:19:32.776Z,99666.44
2023-01-05T19:22:00.136Z,99647.19
2023-01-05T19:24:29.148Z,99645.78
2023-01-05T19:26:56.498Z,99649.09
2023-01-05T19:29:24.470Z,99654.84
2023-01-05T19:31:51.962Z,99648.13
2023-01-05T19:34:19.650Z,99643.66
2023-01-05T19:36:48.040Z,99643.72
2023-01-05T19:39:17.989Z,99632.91
2023-01-05T19:41:48.796Z,99646.41
2023-01-05T19:44:19.093Z,99647.22
2023-01-05T19:46:47.232Z,99636.19
2023-01-05T19:49:17.204Z,99627.00
2023-01-05T19:51:44.638Z,99615.81
2023-01-05T19:54:13.248Z,99607.91
2023-01-05T19:56:41.365Z,99600.94
2023-01-05T19:59:17.281Z,99599.25
2023-01-05T20:01:45.671Z,99590.50
2023-01-05T20:04:26.276Z,99590.47
2023-01-05T20:06:53.168Z,99590.75
2023-01-05T20:09:20.452Z,99588.63
2023-01-05T20:11:51.660Z,99579.78
2023-01-05T20:14:23.549Z,99585.91
2023-01-05T20:16:52.487Z,99560.00
2023-01-05T20:19:20.918Z,99571.59
2023-01-05T20:21:49.006Z,99571.38
2023-01-05T20:24:19.121Z,99562.94
2023-01-05T20:26:47.083Z,99569.75
2023-01-05T20:29:15.012Z,99556.91
2023-01-05T20:31:46.398Z,99557.59
2023-01-05T20:34:16.403Z,99551.16
2023-01-05T20:36:44.599Z,99543.19
2023-01-05T20:39:13.198Z,99540.97
2023-01-05T20:41:42.465Z,99537.53
2023-01-05T20:44:10.232Z,99538.72
2023-01-05T20:46:41.818Z,99535.38
2023-01-05T20:49:10.915Z,99524.69
2023-01-05T20:51:38.807Z,99524.59
2023-01-05T20:54:07.477Z,99523.84
2023-01-05T20:56:35.232Z,99514.50
2023-01-05T20:59:02.565Z,99514.66
2023-01-05T21:01:30.171Z,99519.75
2023-01-05T21:03:57.433Z,99513.50
2023-01-05T21:06:26.935Z,99514.22
2023-01-05T21:08:55.697Z,99509.22
2023-01-05T21:11:22.984Z,99497.94
2023-01-05T21:13:50.867Z,99483.59
2023-01-05T21:16:21.196Z,99492.22
2023-01-05T21:18:49.062Z,99496.31
2023-01-05T21:21:18.153Z,99500.13
2023-01-05T21:23:48.852Z,99488.56
2023-01-05T21:26:16.911Z,99488.16
2023-01-05T21:28:45.660Z,99486.09
2023-01-05T21:31:15.213Z,99475.72
2023-01-05T21:33:43.384Z,99469.16
2023-01-05T21:36:16.988Z,99481.09
2023-01-05T21:39:00.893Z,99469.91
2023-01-05T21:41:31.228Z,99477.69
2023-01-05T21:43:58.546Z,99459.63
2023-01-05T21:46:25.962Z,99460.19
2023-01-05T21:48:52.889Z,99457.44
2023-01-05T21:51:20.272Z,99456.59
2023-01-05T21:53:49.279Z,99460.41
2023-01-05T21:56:16.684Z,99463.09
2023-01-05T21:58:44.484Z,99477.22
2023-01-05T22:01:12.019Z,99475.34
2023-01-05T22:03:39.003Z,99474.19
2023-01-05T22:06:06.687Z,99488.84
2023-01-05T22:08:34.020Z,99529.34
2023-01-05T22:11:03.715Z,99540.53
2023-01-05T22:13:31.633Z,99546.84
2023-01-05T22:15:58.753Z,99540.63
2023-01-05T22:18:26.352Z,99544.00
2023-01-05T22:20:57.935Z,99555.06
2023-01-05T22:23:27.141Z,99543.38
2023-01-05T22:26:00.041Z,99550.53
2023-01-05T22:28:32.965Z,99554.31
2023-01-05T22:31:07.527Z,99572.94
2023-01-05T22:33:37.086Z,99573.09
2023-01-05T22:36:05.822Z,99576.59
2023-01-05T22:38:35.525Z,99581.91
2023-01-05T22:41:03.472Z,99593.53
2023-01-05T22:43:32.646Z,99588.44
2023-01-05T22:46:05.324Z,99605.09
2023-01-05T22:48:33.386Z,99596.00
2023-01-05T22:51:03.268Z,99610.25
2023-01-05T22:53:30.055Z,99621.28
2023-01-05T22:55:57.341Z,99607.25
2023-01-05T22:58:25.030Z,99620.97
2023-01-05T23:00:54.266Z,99624.88
2023-01-05T23:03:22.635Z,99630.63
2023-01-05T23:05:50.226Z,99636.00
2023-01-05T23:08:16.944Z,99622.47
2023-01-05T23:10:44.373Z,99629.03
2023-01-05T23:13:11.672Z,99631.06
2023-01-05T23:15:38.546Z,99626.63
2023-01-05T23:18:07.258Z,99639.38
2023-01-05T23:20:34.549Z,99628.44
2023-01-05T23:23:01.778Z,99625.28
2023-01-05T23:25:29.251Z,99621.56
2023-01-05T23:27:56.029Z,99611.88
2023-01-05T23:30:22.811Z,99624.03
2023-01-05T23:32:50.248Z,99623.13
2023-01-05T23:35:19.073Z,99606.97
2023-01-05T23:37:46.693Z,99598.88
2023-01-05T23:40:13.914Z,99599.53
2023-01-05T23:42:41.227Z,99586.44
2023-01-05T23:45:09.845Z,99590.69
2023-01-05T23:47:42.949Z,99591.53
2023-01-05T23:50:10.592Z,99613.00
2023-01-05T23:52:39.306Z,99618.25
2023-01-05T23:55:07.882Z,99620.84
2023-01-05T23:57:35.402Z,99623.63
